createdAt,value
2023-02-23T00:01:29.405Z,98648.64
2023-02-23T00:03:59.460Z,98646.15
2023-02-23T00:06:30.926Z,98647.10
2023-02-23T00:09:01.833Z,98646.20
2023-02-23T00:11:30.526Z,98646.61
2023-02-23T00:14:01.488Z,98644.52
2023-02-23T00:16:31.298Z,98642.10
2023-02-23T00:19:00.750Z,98641.06
2023-02-23T00:21:35.269Z,98632.02
2023-02-23T00:24:08.611Z,98633.21
2023-02-23T00:26:39.619Z,98630.96
2023-02-23T00:29:18.464Z,98632.09
2023-02-23T00:31:48.155Z,98630.85
2023-02-23T00:34:21.414Z,98630.73
2023-02-23T00:36:54.744Z,98630.33
2023-02-23T00:39:29.584Z,98630.08
2023-02-23T00:42:03.667Z,98631.25
2023-02-23T00:44:34.438Z,98629.52
2023-02-23T00:47:04.811Z,98633.04
2023-02-23T00:49:34.474Z,98629.21
2023-02-23T00:52:05.724Z,98630.34
2023-02-23T00:54:35.131Z,98628.91
2023-02-23T00:57:03.709Z,98629.41
2023-02-23T00:59:33.030Z,98628.50
2023-02-23T01:02:02.499Z,98625.02
2023-02-23T01:04:31.212Z,98627.73
2023-02-23T01:07:00.120Z,98625.05
2023-02-23T01:09:29.900Z,98626.85
2023-02-23T01:12:02.190Z,98627.55
2023-02-23T01:14:31.536Z,98625.62
2023-02-23T01:17:00.584Z,98622.96
2023-02-23T01:19:29.288Z,98621.04
2023-02-23T01:21:58.179Z,98618.59
2023-02-23T01:24:26.735Z,98618.65
2023-02-23T01:26:58.561Z,98617.65
2023-02-23T01:29:28.922Z,98619.08
2023-02-23T01:31:57.547Z,98620.48
2023-02-23T01:34:26.254Z,98616.73
2023-02-23T01:36:55.493Z,98619.56
2023-02-23T01:39:29.721Z,98616.36
2023-02-23T01:41:58.846Z,98611.40
2023-02-23T01:44:31.613Z,98612.45
2023-02-23T01:47:00.577Z,98610.52
2023-02-23T01:49:35.214Z,98611.90
2023-02-23T01:52:15.130Z,98608.46
2023-02-23T01:54:51.675Z,98609.01
2023-02-23T01:57:25.248Z,98606.17
2023-02-23T01:59:55.936Z,98607.21
2023-02-23T02:02:34.029Z,98607.61
2023-02-23T02:05:05.840Z,98604.16
2023-02-23T02:07:35.644Z,98604.40
2023-02-23T02:10:13.506Z,98601.20
2023-02-23T02:12:52.191Z,98598.13
2023-02-23T02:15:26.608Z,98596.47
2023-02-23T02:18:24.143Z,98596.78
2023-02-23T02:21:08.165Z,98596.16
2023-02-23T02:23:59.310Z,98597.38
2023-02-23T02:26:45.835Z,98593.38
2023-02-23T02:29:47.364Z,98594.20
2023-02-23T02:32:45.001Z,98595.67
2023-02-23T02:35:19.219Z,98591.50
2023-02-23T02:37:57.795Z,98593.41
2023-02-23T02:40:53.601Z,98594.34
2023-02-23T02:43:54.965Z,98589.46
2023-02-23T02:46:30.995Z,98587.46
2023-02-23T02:49:12.722Z,98587.47
2023-02-23T02:51:49.450Z,98588.92
2023-02-23T02:54:37.630Z,98583.63
2023-02-23T02:57:08.058Z,98585.49
2023-02-23T03:00:06.669Z,98589.58
2023-02-23T03:02:57.635Z,98582.73
2023-02-23T03:05:50.930Z,98581.17
2023-02-23T03:09:07.146Z,98577.98
2023-02-23T03:12:12.277Z,98582.46
2023-02-23T03:15:18.977Z,98580.08
2023-02-23T03:18:28.196Z,98579.37
2023-02-23T03:21:22.631Z,98577.15
2023-02-23T03:24:27.921Z,98577.64
2023-02-23T03:27:55.285Z,98577.70
2023-02-23T03:30:55.449Z,98573.83
2023-02-23T03:33:55.706Z,98572.23
2023-02-23T03:36:50.206Z,98577.94
2023-02-23T03:40:18.967Z,98574.58
2023-02-23T03:43:11.167Z,98574.63
2023-02-23T03:46:00.358Z,98571.98
2023-02-23T03:48:50.426Z,98570.69
2023-02-23T03:51:40.076Z,98574.23
2023-02-23T03:54:37.843Z,98576.31
2023-02-23T03:57:30.231Z,98579.40
2023-02-23T04:00:22.852Z,98577.88
2023-02-23T04:03:12.334Z,98577.53
2023-02-23T04:06:01.243Z,98575.67
2023-02-23T04:08:56.405Z,98576.29
2023-02-23T04:11:53.481Z,98573.48
2023-02-23T04:14:40.108Z,98571.08
2023-02-23T04:17:10.437Z,98573.82
2023-02-23T04:19:39.415Z,98571.36
2023-02-23T04:22:08.066Z,98576.70
2023-02-23T04:24:36.837Z,98574.10
2023-02-23T04:27:06.649Z,98572.23
2023-02-23T04:29:39.188Z,98570.46
2023-02-23T04:32:12.961Z,98569.63
2023-02-23T04:34:42.758Z,98568.59
2023-02-23T04:37:12.332Z,98567.97
2023-02-23T04:39:40.993Z,98568.69
2023-02-23T04:42:10.612Z,98570.05
2023-02-23T04:44:39.888Z,98566.87
2023-02-23T04:47:08.481Z,98563.96
2023-02-23T04:49:37.241Z,98564.84
2023-02-23T04:52:07.041Z,98564.09
2023-02-23T04:54:41.176Z,98561.14
2023-02-23T04:57:10.709Z,98559.89
2023-02-23T04:59:39.308Z,98562.33
2023-02-23T05:02:08.501Z,98559.36
2023-02-23T05:04:37.627Z,98556.17
2023-02-23T05:07:06.345Z,98561.89
2023-02-23T05:09:35.464Z,98562.23
2023-02-23T05:12:04.305Z,98560.14
2023-02-23T05:14:32.946Z,98557.61
2023-02-23T05:17:01.648Z,98552.72
2023-02-23T05:19:30.474Z,98553.77
2023-02-23T05:21:59.346Z,98554.51
2023-02-23T05:24:28.294Z,98551.89
2023-02-23T05:26:57.121Z,98551.87
2023-02-23T05:29:25.750Z,98551.89
2023-02-23T05:31:55.142Z,98550.33
2023-02-23T05:34:24.459Z,98545.94
2023-02-23T05:36:54.558Z,98551.52
2023-02-23T05:39:23.515Z,98552.34
2023-02-23T05:41:52.987Z,98552.61
2023-02-23T05:44:21.562Z,98553.17
2023-02-23T05:46:50.263Z,98550.50
2023-02-23T05:49:19.477Z,98553.77
2023-02-23T05:51:47.977Z,98555.77
2023-02-23T05:54:17.032Z,98554.16
2023-02-23T05:56:46.393Z,98552.63
2023-02-23T05:59:18.002Z,98550.45
2023-02-23T06:01:47.234Z,98550.23
2023-02-23T06:04:16.021Z,98546.56
2023-02-23T06:06:45.468Z,98550.48
2023-02-23T06:09:14.534Z,98551.34
2023-02-23T06:11:43.181Z,98554.72
2023-02-23T06:14:12.378Z,98554.96
2023-02-23T06:16:41.779Z,98549.09
2023-02-23T06:19:10.842Z,98549.52
2023-02-23T06:21:39.529Z,98552.98
2023-02-23T06:24:09.231Z,98551.54
2023-02-23T06:26:38.258Z,98550.31
2023-02-23T06:29:08.622Z,98552.55
2023-02-23T06:31:37.391Z,98551.48
2023-02-23T06:34:06.044Z,98553.45
2023-02-23T06:36:35.147Z,98552.01
2023-02-23T06:39:04.372Z,98557.58
2023-02-23T06:41:33.771Z,98553.83
2023-02-23T06:44:03.113Z,98554.75
2023-02-23T06:46:33.717Z,98558.35
2023-02-23T06:49:02.609Z,98551.15
2023-02-23T06:51:31.613Z,98551.57
2023-02-23T06:54:00.537Z,98550.64
2023-02-23T06:56:29.161Z,98551.33
2023-02-23T06:58:58.386Z,98555.27
2023-02-23T07:01:27.479Z,98557.21
2023-02-23T07:03:56.245Z,98555.47
2023-02-23T07:06:25.436Z,98555.43
2023-02-23T07:08:58.260Z,98556.08
2023-02-23T07:11:26.932Z,98549.21
2023-02-23T07:14:01.764Z,98551.76
2023-02-23T07:16:31.464Z,98549.95
2023-02-23T07:19:00.144Z,98554.30
2023-02-23T07:21:29.078Z,98552.84
2023-02-23T07:23:58.330Z,98554.49
2023-02-23T07:26:28.009Z,98552.24
2023-02-23T07:28:56.624Z,98553.52
2023-02-23T07:31:26.964Z,98550.42
2023-02-23T07:33:55.877Z,98546.77
2023-02-23T07:36:25.182Z,98546.44
2023-02-23T07:38:54.852Z,98541.13
2023-02-23T07:41:24.226Z,98539.23
2023-02-23T07:43:52.777Z,98541.73
2023-02-23T07:46:22.659Z,98544.77
2023-02-23T07:48:51.710Z,98539.09
2023-02-23T07:51:21.026Z,98544.02
2023-02-23T07:53:50.306Z,98546.05
2023-02-23T07:56:19.543Z,98544.21
2023-02-23T07:58:48.352Z,98547.55
2023-02-23T08:01:17.627Z,98546.61
2023-02-23T08:03:49.920Z,98541.23
2023-02-23T08:06:20.678Z,98537.45
2023-02-23T08:08:49.512Z,98539.52
2023-02-23T08:11:18.442Z,98536.93
2023-02-23T08:13:47.962Z,98535.14
2023-02-23T08:16:18.931Z,98535.58
2023-02-23T08:18:47.659Z,98536.32
2023-02-23T08:21:16.952Z,98535.85
2023-02-23T08:23:46.197Z,98532.90
2023-02-23T08:26:14.864Z,98531.40
2023-02-23T08:28:46.366Z,98533.55
2023-02-23T08:31:19.030Z,98535.27
2023-02-23T08:33:48.332Z,98534.12
2023-02-23T08:36:17.221Z,98535.19
2023-02-23T08:38:45.888Z,98534.34
2023-02-23T08:41:15.515Z,98532.82
2023-02-23T08:43:44.394Z,98532.25
2023-02-23T08:46:13.495Z,98534.12
2023-02-23T08:48:43.099Z,98531.56
2023-02-23T08:51:11.890Z,98530.05
2023-02-23T08:53:41.878Z,98528.20
2023-02-23T08:56:16.057Z,98528.27
2023-02-23T08:58:59.746Z,98526.43
2023-02-23T09:01:37.502Z,98530.27
2023-02-23T09:04:07.195Z,98531.86
2023-02-23T09:06:36.879Z,98530.18
2023-02-23T09:09:06.247Z,98529.70
2023-02-23T09:11:35.022Z,98529.71
2023-02-23T09:14:04.264Z,98530.60
2023-02-23T09:16:34.107Z,98530.27
2023-02-23T09:19:04.048Z,98527.34
2023-02-23T09:21:34.819Z,98529.77
2023-02-23T09:24:03.667Z,98528.73
2023-02-23T09:26:33.735Z,98527.16
2023-02-23T09:29:03.379Z,98523.70
2023-02-23T09:31:32.486Z,98521.95
2023-02-23T09:34:02.211Z,98520.38
2023-02-23T09:36:31.963Z,98518.10
2023-02-23T09:39:01.135Z,98514.80
2023-02-23T09:42:04.171Z,98511.12
2023-02-23T09:44:58.113Z,98511.98
2023-02-23T09:47:52.511Z,98513.35
2023-02-23T09:50:24.000Z,98510.56
2023-02-23T09:53:04.913Z,98511.04
2023-02-23T09:55:34.191Z,98507.92
2023-02-23T09:58:09.222Z,98507.40
2023-02-23T10:00:44.652Z,98505.98
2023-02-23T10:03:28.756Z,98502.18
2023-02-23T10:06:09.352Z,98501.86
2023-02-23T10:08:50.747Z,98501.51
2023-02-23T10:11:42.231Z,98499.09
2023-02-23T10:14:23.053Z,98493.55
2023-02-23T10:17:16.727Z,98492.34
2023-02-23T10:19:56.953Z,98493.55
2023-02-23T10:22:26.876Z,98490.79
2023-02-23T10:25:10.275Z,98491.48
2023-02-23T10:27:45.639Z,98486.27
2023-02-23T10:30:40.586Z,98484.54
2023-02-23T10:33:29.005Z,98480.89
2023-02-23T10:36:13.312Z,98478.45
2023-02-23T10:38:42.718Z,98480.19
2023-02-23T10:41:14.932Z,98475.12
2023-02-23T10:43:43.989Z,98475.83
2023-02-23T10:46:22.887Z,98471.65
2023-02-23T10:48:56.005Z,98471.83
2023-02-23T10:51:34.972Z,98468.16
2023-02-23T10:54:36.457Z,98465.36
2023-02-23T10:57:08.182Z,98463.59
2023-02-23T10:59:37.222Z,98461.48
2023-02-23T11:02:25.982Z,98458.52
2023-02-23T11:04:57.868Z,98455.19
2023-02-23T11:07:32.450Z,98453.60
2023-02-23T11:10:26.234Z,98449.73
2023-02-23T11:12:55.564Z,98448.29
2023-02-23T11:15:49.913Z,98445.84
2023-02-23T11:18:24.324Z,98444.77
2023-02-23T11:20:55.046Z,98444.19
2023-02-23T11:23:31.842Z,98440.12
2023-02-23T11:26:03.896Z,98434.14
2023-02-23T11:28:36.626Z,98431.85
2023-02-23T11:31:26.648Z,98431.46
2023-02-23T11:33:57.716Z,98428.14
2023-02-23T11:36:43.501Z,98430.90
2023-02-23T11:39:25.062Z,98427.70
2023-02-23T11:42:15.931Z,98427.17
2023-02-23T11:44:50.893Z,98422.30
2023-02-23T11:47:23.211Z,98425.04
2023-02-23T11:49:52.510Z,98423.46
2023-02-23T11:52:23.987Z,98416.10
2023-02-23T11:55:02.280Z,98414.50
2023-02-23T11:57:34.930Z,98415.20
2023-02-23T12:00:21.668Z,98411.56
2023-02-23T12:02:55.828Z,98406.48
2023-02-23T12:05:30.169Z,98405.25
2023-02-23T12:08:03.063Z,98399.84
2023-02-23T12:10:51.166Z,98403.10
2023-02-23T12:13:39.925Z,98398.31
2023-02-23T12:16:25.445Z,98399.08
2023-02-23T12:19:00.497Z,98395.38
2023-02-23T12:21:47.060Z,98392.20
2023-02-23T12:24:36.146Z,98389.89
2023-02-23T12:27:14.013Z,98389.52
2023-02-23T12:30:17.132Z,98391.98
2023-02-23T12:33:12.366Z,98384.28
2023-02-23T12:36:21.430Z,98383.86
2023-02-23T12:39:34.484Z,98380.16
2023-02-23T12:42:40.272Z,98376.77
2023-02-23T12:45:27.229Z,98375.35
2023-02-23T12:48:30.067Z,98376.79
2023-02-23T12:51:02.771Z,98372.55
2023-02-23T12:53:39.990Z,98367.94
2023-02-23T12:56:33.942Z,98367.44
2023-02-23T12:59:19.524Z,98360.71
2023-02-23T13:02:18.950Z,98361.79
2023-02-23T13:05:18.568Z,98361.13
2023-02-23T13:07:57.137Z,98358.44
2023-02-23T13:10:50.284Z,98359.73
2023-02-23T13:13:42.807Z,98357.67
2023-02-23T13:16:34.590Z,98357.69
2023-02-23T13:19:22.036Z,98348.48
2023-02-23T13:22:17.148Z,98344.20
2023-02-23T13:24:49.774Z,98344.02
2023-02-23T13:27:36.493Z,98341.89
2023-02-23T13:30:09.743Z,98341.14
2023-02-23T13:32:40.082Z,98339.16
2023-02-23T13:35:17.288Z,98342.03
2023-02-23T13:37:53.902Z,98336.73
2023-02-23T13:40:51.249Z,98336.67
2023-02-23T13:43:43.507Z,98335.23
2023-02-23T13:46:27.106Z,98334.67
2023-02-23T13:49:28.752Z,98333.84
2023-02-23T13:52:11.402Z,98335.80
2023-02-23T13:54:57.378Z,98334.54
2023-02-23T13:57:28.952Z,98333.63
2023-02-23T13:59:58.783Z,98335.54
2023-02-23T14:02:39.913Z,98333.45
2023-02-23T14:05:19.986Z,98328.41
2023-02-23T14:07:54.926Z,98324.66
2023-02-23T14:10:30.145Z,98325.23
2023-02-23T14:13:25.356Z,98321.91
2023-02-23T14:16:15.981Z,98320.55
2023-02-23T14:18:58.317Z,98321.63
2023-02-23T14:21:33.790Z,98322.57
2023-02-23T14:24:27.516Z,98318.65
2023-02-23T14:27:42.240Z,98317.85
2023-02-23T14:30:11.773Z,98318.27
2023-02-23T14:32:46.669Z,98318.64
2023-02-23T14:35:36.936Z,98316.02
2023-02-23T14:38:13.952Z,98314.66
2023-02-23T14:40:49.330Z,98316.79
2023-02-23T14:43:51.740Z,98319.61
2023-02-23T14:46:24.071Z,98315.84
2023-02-23T14:49:19.531Z,98314.68
2023-02-23T14:52:04.820Z,98315.45
2023-02-23T14:54:35.078Z,98311.34
2023-02-23T14:57:26.783Z,98314.35
2023-02-23T15:00:02.158Z,98315.98
2023-02-23T15:02:31.880Z,98313.59
2023-02-23T15:05:15.490Z,98308.24
2023-02-23T15:07:46.126Z,98309.33
2023-02-23T15:10:28.507Z,98308.85
2023-02-23T15:12:58.175Z,98304.91
2023-02-23T15:15:28.076Z,98303.76
2023-02-23T15:18:01.501Z,98305.73
2023-02-23T15:23:05.138Z,98307.38
2023-02-23T15:25:40.120Z,98307.59
2023-02-23T15:28:21.335Z,98306.27
2023-02-23T15:30:51.916Z,98301.08
2023-02-23T15:33:29.060Z,98300.77
2023-02-23T15:36:16.111Z,98300.48
2023-02-23T15:38:51.761Z,98300.19
2023-02-23T15:41:38.609Z,98299.38
2023-02-23T15:44:15.951Z,98297.50
2023-02-23T15:46:48.903Z,98293.38
2023-02-23T15:49:20.780Z,98293.92
2023-02-23T15:51:53.473Z,98293.42
2023-02-23T15:54:28.479Z,98291.71
2023-02-23T15:57:02.686Z,98290.86
2023-02-23T15:59:37.152Z,98290.89
2023-02-23T16:02:17.036Z,98286.74
2023-02-23T16:04:54.330Z,98286.42
2023-02-23T16:07:26.337Z,98287.81
2023-02-23T16:10:04.649Z,98289.55
2023-02-23T16:12:38.830Z,98292.51
2023-02-23T16:15:27.588Z,98290.92
2023-02-23T16:18:03.876Z,98285.74
2023-02-23T16:20:47.100Z,98290.92
2023-02-23T16:23:42.263Z,98286.77
2023-02-23T16:26:18.607Z,98285.91
2023-02-23T16:28:47.944Z,98286.60
2023-02-23T16:31:26.409Z,98283.14
2023-02-23T16:33:57.393Z,98288.33
2023-02-23T16:36:40.105Z,98284.86
2023-02-23T16:39:13.455Z,98289.88
2023-02-23T16:41:43.024Z,98296.65
2023-02-23T16:44:16.698Z,98292.82
2023-02-23T16:46:54.548Z,98292.13
2023-02-23T16:49:23.740Z,98293.34
2023-02-23T16:51:52.502Z,98292.47
2023-02-23T16:54:21.449Z,98293.67
2023-02-23T16:56:55.658Z,98293.84
2023-02-23T16:59:25.062Z,98293.31
2023-02-23T17:01:54.542Z,98290.22
2023-02-23T17:04:24.072Z,98291.08
2023-02-23T17:06:58.081Z,98289.16
2023-02-23T17:09:27.760Z,98286.91
2023-02-23T17:11:58.148Z,98285.87
2023-02-23T17:14:32.211Z,98283.27
2023-02-23T17:17:01.303Z,98285.68
2023-02-23T17:19:30.381Z,98280.83
2023-02-23T17:21:59.334Z,98281.17
2023-02-23T17:24:28.282Z,98280.81
2023-02-23T17:26:57.036Z,98283.23
2023-02-23T17:29:25.969Z,98285.83
2023-02-23T17:31:55.939Z,98289.29
2023-02-23T17:34:26.735Z,98287.55
2023-02-23T17:36:56.078Z,98290.15
2023-02-23T17:39:28.556Z,98291.89
2023-02-23T17:41:58.174Z,98290.66
2023-02-23T17:44:26.664Z,98291.00
2023-02-23T17:46:55.312Z,98292.03
2023-02-23T17:49:25.755Z,98289.60
2023-02-23T17:51:54.139Z,98284.05
2023-02-23T17:54:22.986Z,98284.73
2023-02-23T17:56:53.033Z,98285.07
2023-02-23T17:59:21.935Z,98283.51
2023-02-23T18:01:50.965Z,98282.48
2023-02-23T18:04:31.507Z,98279.88
2023-02-23T18:07:17.180Z,98277.27
2023-02-23T18:10:11.245Z,98275.02
2023-02-23T18:12:59.690Z,98269.83
2023-02-23T18:15:46.065Z,98267.91
2023-02-23T18:18:48.599Z,98271.88
2023-02-23T18:21:33.858Z,98272.05
2023-02-23T18:24:23.600Z,98273.06
2023-02-23T18:27:20.638Z,98275.83
2023-02-23T18:30:13.593Z,98273.23
2023-02-23T18:33:13.853Z,98273.23
2023-02-23T18:36:09.017Z,98275.66
2023-02-23T18:39:06.664Z,98275.48
2023-02-23T18:42:00.844Z,98276.17
2023-02-23T18:44:37.234Z,98275.13
2023-02-23T18:47:06.295Z,98274.59
2023-02-23T18:49:35.206Z,98274.06
2023-02-23T18:52:09.632Z,98272.49
2023-02-23T18:54:40.494Z,98269.20
2023-02-23T18:57:09.184Z,98265.04
2023-02-23T18:59:37.956Z,98267.12
2023-02-23T19:02:07.407Z,98269.89
2023-02-23T19:04:36.796Z,98270.05
2023-02-23T19:07:05.871Z,98272.45
2023-02-23T19:09:34.749Z,98270.87
2023-02-23T19:12:03.991Z,98271.18
2023-02-23T19:14:48.262Z,98272.38
2023-02-23T19:17:19.618Z,98272.20
2023-02-23T19:19:51.752Z,98273.78
2023-02-23T19:22:21.504Z,98271.05
2023-02-23T19:24:50.251Z,98270.53
2023-02-23T19:27:19.583Z,98270.84
2023-02-23T19:29:48.909Z,98272.38
2023-02-23T19:32:18.540Z,98266.13
2023-02-23T19:34:48.133Z,98266.82
2023-02-23T19:37:17.048Z,98265.29
2023-02-23T19:39:46.767Z,98262.36
2023-02-23T19:42:19.054Z,98265.83
2023-02-23T19:44:52.306Z,98262.54
2023-02-23T19:47:22.043Z,98261.84
2023-02-23T19:49:51.035Z,98261.15
2023-02-23T19:52:19.651Z,98259.59
2023-02-23T19:54:48.545Z,98257.17
2023-02-23T19:57:17.448Z,98255.23
2023-02-23T19:59:46.201Z,98255.22
2023-02-23T20:02:16.873Z,98254.52
2023-02-23T20:04:52.480Z,98255.37
2023-02-23T20:07:21.508Z,98250.54
2023-02-23T20:09:50.261Z,98256.08
2023-02-23T20:12:19.232Z,98254.02
2023-02-23T20:14:50.325Z,98253.86
2023-02-23T20:17:19.181Z,98251.77
2023-02-23T20:19:48.281Z,98250.55
2023-02-23T20:22:17.392Z,98246.58
2023-02-23T20:24:46.471Z,98245.51
2023-02-23T20:27:15.188Z,98242.39
2023-02-23T20:29:44.530Z,98243.42
2023-02-23T20:32:13.565Z,98241.73
2023-02-23T20:34:45.828Z,98240.66
2023-02-23T20:37:14.643Z,98239.44
2023-02-23T20:39:43.602Z,98239.08
2023-02-23T20:42:12.728Z,98237.51
2023-02-23T20:44:41.672Z,98234.58
2023-02-23T20:47:11.785Z,98234.06
2023-02-23T20:49:42.074Z,98228.53
2023-02-23T20:52:14.134Z,98224.84
2023-02-23T20:54:42.960Z,98222.40
2023-02-23T20:57:14.065Z,98220.48
2023-02-23T20:59:46.035Z,98223.09
2023-02-23T21:02:15.610Z,98219.82
2023-02-23T21:04:45.280Z,98216.53
2023-02-23T21:07:14.438Z,98214.30
2023-02-23T21:09:43.758Z,98213.77
2023-02-23T21:12:14.179Z,98214.27
2023-02-23T21:14:42.917Z,98211.48
2023-02-23T21:17:11.497Z,98206.65
2023-02-23T21:19:40.968Z,98208.21
2023-02-23T21:22:09.865Z,98205.44
2023-02-23T21:24:41.236Z,98200.27
2023-02-23T21:27:13.730Z,98202.66
2023-02-23T21:29:46.232Z,98199.20
2023-02-23T21:32:17.265Z,98196.09
2023-02-23T21:34:46.374Z,98191.91
2023-02-23T21:37:16.109Z,98188.28
2023-02-23T21:39:47.349Z,98187.38
2023-02-23T21:42:16.221Z,98187.53
2023-02-23T21:44:45.990Z,98184.77
2023-02-23T21:47:15.975Z,98181.13
2023-02-23T21:49:49.607Z,98174.58
2023-02-23T21:52:18.815Z,98175.28
2023-02-23T21:54:53.105Z,98176.68
2023-02-23T21:57:23.428Z,98175.30
2023-02-23T21:59:53.265Z,98176.33
2023-02-23T22:02:21.770Z,98175.80
2023-02-23T22:04:51.397Z,98172.33
2023-02-23T22:07:22.034Z,98170.08
2023-02-23T22:09:50.882Z,98169.05
2023-02-23T22:12:19.994Z,98172.16
2023-02-23T22:14:49.031Z,98168.88
2023-02-23T22:17:19.539Z,98172.67
2023-02-23T22:19:51.238Z,98171.47
2023-02-23T22:22:20.898Z,98166.45
2023-02-23T22:24:50.394Z,98163.52
2023-02-23T22:27:19.323Z,98159.88
2023-02-23T22:29:48.263Z,98158.67
2023-02-23T22:32:17.804Z,98156.43
2023-02-23T22:34:46.922Z,98157.11
2023-02-23T22:37:15.879Z,98154.35
2023-02-23T22:39:45.098Z,98152.13
2023-02-23T22:42:14.007Z,98149.73
2023-02-23T22:44:42.973Z,98141.45
2023-02-23T22:47:13.828Z,98141.64
2023-02-23T22:49:42.545Z,98137.67
2023-02-23T22:52:13.497Z,98135.41
2023-02-23T22:54:46.013Z,98129.00
2023-02-23T22:57:15.183Z,98134.52
2023-02-23T22:59:55.206Z,98136.58
2023-02-23T23:02:23.804Z,98131.58
2023-02-23T23:04:55.019Z,98129.34
2023-02-23T23:07:26.492Z,98126.75
2023-02-23T23:09:55.603Z,98127.46
2023-02-23T23:12:28.444Z,98120.57
2023-02-23T23:15:01.552Z,98117.28
2023-02-23T23:17:31.884Z,98114.86
2023-02-23T23:20:01.280Z,98112.27
2023-02-23T23:22:29.800Z,98107.21
2023-02-23T23:24:58.959Z,98102.89
2023-02-23T23:27:27.824Z,98102.20
2023-02-23T23:29:56.433Z,98105.14
2023-02-23T23:32:28.033Z,98108.41
2023-02-23T23:34:58.801Z,98107.71
2023-02-23T23:37:30.272Z,98105.48
2023-02-23T23:40:14.354Z,98102.55
2023-02-23T23:42:46.598Z,98100.81
2023-02-23T23:45:17.822Z,98093.91
2023-02-23T23:47:47.750Z,98091.82
2023-02-23T23:50:17.550Z,98089.08
2023-02-23T23:52:46.186Z,98082.33
2023-02-23T23:55:15.868Z,98080.61
2023-02-23T23:57:44.654Z,98077.69
